Terminal Aerodrome Forecast
Issued by NWS

Home | Current Version | Previous Version | Text Only | Print | Product List | Glossary On
Versions: 1 2 3 4 5 6 7 8 9 10 11 12 13 14 15
395
FTUS43 KTOP 241120
TAFMHK
TAF
KMHK 241120Z 2412/2512 18009KT P6SM SCT060
     FM241400 17011KT P6SM VCTS SCT050CB
      TEMPO 2422/2502 VRB15G30KT 1SM TSRA BKN025CB
     FM250200 25005KT 3SM -TSRA BKN035CB=

USA.gov is the U.S. government's official web portal to all federal, state and local government web resources and services.